createdAt,value
2022-08-12T00:00:00.201Z,11.68
2022-08-12T00:02:46.107Z,11.68
2022-08-12T00:05:32.051Z,11.68
2022-08-12T00:08:17.582Z,11.66
2022-08-12T00:11:15.347Z,11.64
2022-08-12T00:14:01.243Z,11.62
2022-08-12T00:16:47.542Z,11.59
2022-08-12T00:19:33.845Z,11.56
2022-08-12T00:22:19.790Z,11.53
2022-08-12T00:25:05.828Z,11.49
2022-08-12T00:27:51.870Z,11.45
2022-08-12T00:30:37.541Z,11.42
2022-08-12T00:33:23.235Z,11.42
2022-08-12T00:36:17.799Z,11.39
2022-08-12T00:39:18.104Z,11.39
2022-08-12T00:42:04.751Z,11.36
2022-08-12T00:44:31.741Z,11.33
2022-08-12T00:47:01.202Z,11.30
2022-08-12T00:49:30.617Z,11.30
2022-08-12T00:52:10.067Z,11.30
2022-08-12T00:54:58.347Z,11.31
2022-08-12T00:57:37.452Z,11.31
2022-08-12T01:00:13.329Z,11.30
2022-08-12T01:02:42.492Z,11.31
2022-08-12T01:05:30.917Z,11.30
2022-08-12T01:08:16.530Z,11.28
2022-08-12T01:11:04.070Z,11.26
2022-08-12T01:13:35.111Z,11.26
2022-08-12T01:16:05.711Z,11.22
2022-08-12T01:18:35.511Z,11.23
2022-08-12T01:21:27.203Z,11.21
2022-08-12T01:24:32.196Z,11.22
2022-08-12T01:27:01.449Z,11.19
2022-08-12T01:29:33.020Z,11.15
2022-08-12T01:32:01.418Z,11.17
2022-08-12T01:34:36.356Z,11.14
2022-08-12T01:37:06.599Z,11.10
2022-08-12T01:40:33.881Z,11.09
2022-08-12T01:42:39.865Z,11.11
2022-08-12T01:45:07.574Z,11.12
2022-08-12T01:47:49.227Z,11.05
2022-08-12T01:50:31.229Z,11.01
2022-08-12T01:53:00.526Z,10.98
2022-08-12T01:55:32.542Z,10.94
2022-08-12T01:58:51.762Z,10.96
2022-08-12T02:01:21.036Z,10.93
2022-08-12T02:04:23.524Z,10.87
2022-08-12T02:07:27.989Z,10.85
2022-08-12T02:10:49.414Z,10.80
2022-08-12T02:13:42.115Z,10.80
2022-08-12T02:16:27.399Z,10.77
2022-08-12T02:19:22.789Z,10.75
2022-08-12T02:22:22.668Z,10.75
2022-08-12T02:24:51.020Z,10.75
2022-08-12T02:27:19.566Z,10.74
2022-08-12T02:29:47.651Z,10.73
2022-08-12T02:32:15.165Z,10.73
2022-08-12T02:34:44.573Z,10.73
2022-08-12T02:37:15.457Z,10.72
2022-08-12T02:39:48.906Z,10.70
2022-08-12T02:42:19.755Z,10.72
2022-08-12T02:44:51.410Z,10.70
2022-08-12T02:47:59.131Z,10.69
2022-08-12T02:50:10.993Z,10.67
2022-08-12T02:52:38.936Z,10.64
2022-08-12T02:55:28.936Z,10.65
2022-08-12T02:58:12.353Z,10.69
2022-08-12T03:00:43.354Z,10.69
2022-08-12T03:03:13.122Z,10.71
2022-08-12T03:06:00.038Z,10.71
2022-08-12T03:08:32.926Z,10.72
2022-08-12T03:11:06.238Z,10.71
2022-08-12T03:13:42.848Z,10.75
2022-08-12T03:16:09.977Z,10.77
2022-08-12T03:18:37.256Z,10.77
2022-08-12T03:21:04.373Z,10.77
2022-08-12T03:23:31.709Z,10.78
2022-08-12T03:26:02.849Z,10.77
2022-08-12T03:28:51.699Z,10.78
2022-08-12T03:31:24.923Z,10.78
2022-08-12T03:34:00.617Z,10.78
2022-08-12T03:36:31.477Z,10.83
2022-08-12T03:39:19.004Z,11.10
2022-08-12T03:41:58.489Z,11.63
2022-08-12T03:44:57.429Z,12.10
2022-08-12T03:48:08.760Z,12.68
2022-08-12T03:50:55.475Z,13.21
2022-08-12T03:53:46.363Z,13.65
2022-08-12T03:56:32.632Z,14.12
2022-08-12T03:59:19.478Z,14.57
2022-08-12T04:01:52.617Z,15.03
2022-08-12T04:04:23.501Z,15.43
2022-08-12T04:06:50.707Z,15.84
2022-08-12T04:09:21.168Z,16.18
2022-08-12T04:12:07.646Z,16.56
2022-08-12T04:14:37.799Z,16.96
2022-08-12T04:17:05.205Z,17.25
2022-08-12T04:19:32.257Z,17.51
2022-08-12T04:22:02.772Z,17.78
2022-08-12T04:24:35.586Z,18.13
2022-08-12T04:27:08.780Z,18.57
2022-08-12T04:30:32.913Z,18.88
2022-08-12T04:32:27.739Z,18.98
2022-08-12T04:34:55.366Z,18.55
2022-08-12T04:37:23.264Z,18.01
2022-08-12T04:39:51.054Z,17.51
2022-08-12T04:42:20.243Z,17.19
2022-08-12T04:44:48.210Z,16.95
2022-08-12T04:47:16.646Z,16.87
2022-08-12T04:49:45.566Z,16.94
2022-08-12T04:52:13.546Z,16.92
2022-08-12T04:54:40.879Z,17.15
2022-08-12T04:57:09.994Z,17.27
2022-08-12T04:59:46.918Z,17.33
2022-08-12T05:02:21.714Z,17.41
2022-08-12T05:04:56.288Z,17.44
2022-08-12T05:07:28.546Z,17.75
2022-08-12T05:10:00.733Z,17.98
2022-08-12T05:12:43.207Z,18.11
2022-08-12T05:15:27.471Z,18.16
2022-08-12T05:18:00.237Z,18.24
2022-08-12T05:20:29.879Z,18.19
2022-08-12T05:23:17.582Z,18.16
2022-08-12T05:25:45.921Z,18.38
2022-08-12T05:28:14.163Z,18.56
2022-08-12T05:30:42.785Z,18.62
2022-08-12T05:33:11.578Z,18.65
2022-08-12T05:35:41.767Z,18.76
2022-08-12T05:38:32.549Z,18.87
2022-08-12T05:41:00.697Z,19.03
2022-08-12T05:43:28.880Z,19.14
2022-08-12T05:45:56.247Z,19.21
2022-08-12T05:48:23.539Z,19.40
2022-08-12T05:50:50.699Z,19.56
2022-08-12T05:53:17.637Z,19.70
2022-08-12T05:55:44.727Z,19.80
2022-08-12T05:58:11.720Z,19.90
2022-08-12T06:00:38.873Z,20.09
2022-08-12T06:03:06.893Z,20.21
2022-08-12T06:05:43.045Z,20.27
2022-08-12T06:08:21.821Z,20.40
2022-08-12T06:10:52.059Z,20.56
2022-08-12T06:13:28.554Z,20.77
2022-08-12T06:16:07.739Z,21.02
2022-08-12T06:18:35.158Z,21.15
2022-08-12T06:21:02.474Z,21.24
2022-08-12T06:23:30.580Z,21.29
2022-08-12T06:25:58.627Z,21.33
2022-08-12T06:28:26.153Z,21.50
2022-08-12T06:31:22.147Z,21.59
2022-08-12T06:33:54.973Z,21.77
2022-08-12T06:36:29.475Z,21.92
2022-08-12T06:38:57.368Z,22.11
2022-08-12T06:42:30.604Z,22.27
2022-08-12T06:44:29.919Z,22.43
2022-08-12T06:46:58.541Z,22.57
2022-08-12T06:49:26.071Z,22.74
2022-08-12T06:51:56.913Z,22.90
2022-08-12T06:54:27.055Z,23.05
2022-08-12T06:57:04.857Z,23.07
2022-08-12T06:59:51.133Z,23.27
2022-08-12T07:02:21.139Z,23.45
2022-08-12T07:04:50.877Z,23.53
2022-08-12T07:07:18.597Z,23.70
2022-08-12T07:10:04.724Z,23.81
2022-08-12T07:12:32.702Z,23.89
2022-08-12T07:15:01.981Z,24.03
2022-08-12T07:17:37.851Z,24.24
2022-08-12T07:20:29.838Z,24.40
2022-08-12T07:22:58.162Z,24.61
2022-08-12T07:25:41.559Z,24.76
2022-08-12T07:28:29.472Z,24.77
2022-08-12T07:30:58.053Z,24.92
2022-08-12T07:33:28.254Z,25.07
2022-08-12T07:35:57.532Z,25.20
2022-08-12T07:38:33.705Z,25.28
2022-08-12T07:41:04.020Z,25.44
2022-08-12T07:43:31.701Z,25.50
2022-08-12T07:46:00.324Z,25.61
2022-08-12T07:48:27.914Z,25.62
2022-08-12T07:50:55.163Z,25.73
2022-08-12T07:53:22.410Z,25.93
2022-08-12T07:55:49.571Z,25.94
2022-08-12T07:58:16.524Z,25.92
2022-08-12T08:00:44.593Z,25.81
2022-08-12T08:03:13.414Z,25.87
2022-08-12T08:05:46.504Z,25.96
2022-08-12T08:08:18.582Z,25.91
2022-08-12T08:10:46.373Z,25.90
2022-08-12T08:13:13.662Z,26.04
2022-08-12T08:18:28.943Z,26.18
2022-08-12T08:20:56.812Z,26.02
2022-08-12T08:23:46.395Z,26.05
2022-08-12T08:26:15.737Z,26.18
2022-08-12T08:28:44.172Z,26.40
2022-08-12T08:31:13.436Z,26.54
2022-08-12T08:34:05.250Z,26.57
2022-08-12T08:36:28.967Z,26.71
2022-08-12T08:38:58.686Z,26.89
2022-08-12T08:42:19.187Z,26.98
2022-08-12T08:44:36.427Z,27.04
2022-08-12T08:47:05.670Z,27.13
2022-08-12T08:49:33.011Z,27.22
2022-08-12T08:52:04.603Z,26.87
2022-08-12T08:54:33.627Z,26.45
2022-08-12T08:57:01.953Z,26.44
2022-08-12T08:59:29.061Z,26.40
2022-08-12T09:01:56.720Z,26.17
2022-08-12T09:05:13.272Z,26.33
2022-08-12T09:07:17.852Z,26.25
2022-08-12T09:10:02.047Z,26.27
2022-08-12T09:15:41.692Z,26.16
2022-08-12T09:18:11.781Z,26.30
2022-08-12T09:20:40.523Z,26.61
2022-08-12T09:26:04.333Z,26.80
2022-08-12T09:28:37.327Z,26.70
2022-08-12T09:32:02.652Z,26.69
2022-08-12T09:34:27.874Z,26.84
2022-08-12T09:36:57.722Z,26.75
2022-08-12T09:40:05.720Z,26.82
2022-08-12T09:42:43.409Z,26.69
2022-08-12T09:46:11.466Z,26.75
2022-08-12T09:48:20.072Z,26.63
2022-08-12T09:50:51.650Z,26.50
2022-08-12T09:53:29.260Z,26.44
2022-08-12T09:56:07.168Z,26.39
2022-08-12T09:58:59.997Z,26.73
2022-08-12T10:01:35.392Z,26.75
2022-08-12T10:04:19.097Z,26.86
2022-08-12T10:06:54.326Z,26.98
2022-08-12T10:09:28.435Z,27.11
2022-08-12T10:12:31.547Z,27.08
2022-08-12T10:15:02.143Z,27.33
2022-08-12T10:17:29.647Z,27.44
2022-08-12T10:19:59.731Z,27.66
2022-08-12T10:22:36.447Z,26.98
2022-08-12T10:26:18.969Z,26.90
2022-08-12T10:28:33.283Z,26.55
2022-08-12T10:31:01.165Z,26.72
2022-08-12T10:33:31.982Z,27.04
2022-08-12T10:36:02.018Z,26.65
2022-08-12T10:38:37.559Z,26.19
2022-08-12T10:41:57.279Z,26.30
2022-08-12T10:44:16.887Z,26.28
2022-08-12T10:46:49.861Z,26.18
2022-08-12T10:50:03.693Z,26.42
2022-08-12T10:52:34.939Z,26.56
2022-08-12T10:54:56.250Z,26.64
2022-08-12T10:58:12.731Z,26.52
2022-08-12T11:00:34.859Z,26.51
2022-08-12T11:04:26.257Z,26.35
2022-08-12T11:07:10.116Z,26.35
2022-08-12T11:08:43.517Z,26.47
2022-08-12T11:12:07.502Z,26.62
2022-08-12T11:14:05.891Z,26.76
2022-08-12T11:16:33.406Z,26.50
2022-08-12T11:19:02.936Z,26.45
2022-08-12T11:21:56.308Z,26.17
2022-08-12T11:24:31.873Z,26.18
2022-08-12T11:27:01.352Z,26.33
2022-08-12T11:30:05.477Z,26.04
2022-08-12T11:32:16.952Z,26.12
2022-08-12T11:34:51.716Z,26.23
2022-08-12T11:37:26.480Z,26.23
2022-08-12T11:42:39.640Z,26.59
2022-08-12T11:45:16.894Z,26.31
2022-08-12T11:47:44.492Z,26.18
2022-08-12T11:50:19.248Z,26.17
2022-08-12T11:52:56.392Z,26.10
2022-08-12T11:55:25.402Z,25.93
2022-08-12T11:59:02.764Z,25.97
2022-08-12T12:03:44.154Z,26.03
2022-08-12T12:06:18.017Z,26.05
2022-08-12T12:08:51.063Z,26.10
2022-08-12T12:11:20.245Z,26.10
2022-08-12T12:14:06.604Z,26.11
2022-08-12T12:16:38.012Z,26.25
2022-08-12T12:19:05.718Z,26.11
2022-08-12T12:21:47.845Z,26.10
2022-08-12T12:24:21.805Z,26.02
2022-08-12T12:27:00.893Z,25.98
2022-08-12T12:30:13.750Z,25.89
2022-08-12T12:32:17.294Z,26.07
2022-08-12T12:35:14.474Z,26.16
2022-08-12T12:37:59.037Z,26.46
2022-08-12T12:40:21.570Z,26.42
2022-08-12T12:42:55.334Z,26.17
2022-08-12T12:45:26.316Z,26.30
2022-08-12T12:48:07.965Z,26.34
2022-08-12T12:51:48.907Z,26.27
2022-08-12T12:54:09.987Z,26.32
2022-08-12T12:56:40.623Z,26.31
2022-08-12T12:59:55.434Z,26.34
2022-08-12T13:01:55.548Z,26.37
2022-08-12T13:04:22.790Z,26.34
2022-08-12T13:06:52.280Z,26.32
2022-08-12T13:09:22.310Z,25.96
2022-08-12T13:11:53.486Z,25.70
2022-08-12T13:14:27.969Z,25.92
2022-08-12T13:17:02.701Z,25.92
2022-08-12T13:19:42.264Z,25.84
2022-08-12T13:22:23.624Z,25.63
2022-08-12T13:24:56.220Z,25.71
2022-08-12T13:27:34.548Z,25.54
2022-08-12T13:30:06.750Z,25.57
2022-08-12T13:32:37.995Z,25.57
2022-08-12T13:35:19.745Z,25.59
2022-08-12T13:37:55.851Z,25.62
2022-08-12T13:40:33.462Z,25.60
2022-08-12T13:43:02.121Z,25.54
2022-08-12T13:45:31.231Z,25.28
2022-08-12T13:48:05.540Z,25.35
2022-08-12T13:50:37.553Z,25.30
2022-08-12T13:53:24.322Z,25.28
2022-08-12T13:55:59.382Z,25.52
2022-08-12T13:58:28.348Z,25.48
2022-08-12T14:00:58.390Z,25.34
2022-08-12T14:03:28.449Z,25.23
2022-08-12T14:06:15.199Z,25.09
2022-08-12T14:08:43.718Z,25.15
2022-08-12T14:11:12.352Z,25.07
2022-08-12T14:14:05.176Z,25.07
2022-08-12T14:16:46.606Z,25.14
2022-08-12T14:19:22.862Z,25.16
2022-08-12T14:22:01.506Z,25.18
2022-08-12T14:24:41.097Z,25.26
2022-08-12T14:27:10.601Z,25.01
2022-08-12T14:30:06.193Z,25.01
2022-08-12T14:32:35.508Z,25.30
2022-08-12T14:35:09.511Z,25.13
2022-08-12T14:37:56.604Z,25.13
2022-08-12T14:40:30.065Z,25.38
2022-08-12T14:43:00.217Z,24.97
2022-08-12T14:45:44.368Z,24.97
2022-08-12T14:48:19.430Z,24.83
2022-08-12T14:51:02.847Z,24.74
2022-08-12T14:59:56.864Z,24.97
2022-08-12T15:02:22.061Z,24.98
2022-08-12T15:04:58.856Z,24.78
2022-08-12T15:07:34.168Z,24.98
2022-08-12T15:10:32.015Z,24.80
2022-08-12T15:13:07.178Z,24.88
2022-08-12T15:15:38.606Z,24.87
2022-08-12T15:18:21.660Z,24.98
2022-08-12T15:20:54.726Z,24.86
2022-08-12T15:23:23.120Z,24.73
2022-08-12T15:25:59.837Z,24.63
2022-08-12T15:28:34.809Z,24.68
2022-08-12T15:31:03.389Z,24.63
2022-08-12T15:33:52.735Z,24.79
2022-08-12T15:36:50.244Z,24.68
2022-08-12T15:39:16.720Z,24.74
2022-08-12T15:41:49.332Z,24.59
2022-08-12T15:44:42.060Z,24.75
2022-08-12T15:47:05.268Z,24.68
2022-08-12T15:49:54.357Z,24.64
2022-08-12T15:52:27.550Z,24.58
2022-08-12T15:54:58.671Z,24.51
2022-08-12T15:57:27.383Z,24.51
2022-08-12T16:00:06.647Z,24.50
2022-08-12T16:02:50.165Z,24.31
2022-08-12T16:06:16.943Z,24.17
2022-08-12T16:08:15.212Z,24.18
2022-08-12T16:10:44.842Z,24.14
2022-08-12T16:13:14.683Z,24.23
2022-08-12T16:15:51.065Z,24.14
2022-08-12T16:18:37.264Z,24.15
2022-08-12T16:21:09.086Z,23.95
2022-08-12T16:23:55.321Z,23.90
2022-08-12T16:26:27.386Z,23.81
2022-08-12T16:29:15.155Z,23.69
2022-08-12T16:31:44.549Z,23.53
2022-08-12T16:34:25.446Z,23.49
2022-08-12T16:37:13.239Z,23.34
2022-08-12T16:39:59.792Z,23.32
2022-08-12T16:42:28.856Z,23.30
2022-08-12T16:45:01.879Z,23.09
2022-08-12T16:47:57.503Z,22.97
2022-08-12T16:50:22.806Z,22.86
2022-08-12T16:52:59.787Z,22.77
2022-08-12T16:55:42.283Z,22.69
2022-08-12T16:58:28.327Z,22.74
2022-08-12T17:00:58.810Z,22.73
2022-08-12T17:03:30.602Z,22.53
2022-08-12T17:05:57.697Z,22.52
2022-08-12T17:08:29.001Z,22.38
2022-08-12T17:10:56.602Z,22.31
2022-08-12T17:13:26.373Z,22.27
2022-08-12T17:16:04.934Z,22.17
2022-08-12T17:18:43.944Z,22.08
2022-08-12T17:21:40.124Z,22.03
2022-08-12T17:24:10.565Z,21.91
2022-08-12T17:26:45.028Z,21.86
2022-08-12T17:29:31.952Z,21.82
2022-08-12T17:32:08.772Z,21.74
2022-08-12T17:34:55.048Z,21.69
2022-08-12T17:37:22.295Z,21.62
2022-08-12T17:40:12.003Z,21.53
2022-08-12T17:42:42.301Z,21.45
2022-08-12T17:45:18.217Z,21.37
2022-08-12T17:48:00.773Z,21.34
2022-08-12T17:50:32.433Z,21.36
2022-08-12T17:53:02.871Z,21.35
2022-08-12T17:55:43.663Z,21.22
2022-08-12T17:58:21.619Z,21.18
2022-08-12T18:01:03.402Z,21.10
2022-08-12T18:04:04.231Z,21.05
2022-08-12T18:06:17.987Z,21.03
2022-08-12T18:08:54.436Z,20.95
2022-08-12T18:12:06.270Z,20.91
2022-08-12T18:14:29.994Z,20.81
2022-08-12T18:17:00.642Z,20.78
2022-08-12T18:19:34.266Z,20.78
2022-08-12T18:22:22.176Z,20.72
2022-08-12T18:25:04.945Z,20.55
2022-08-12T18:27:44.762Z,20.59
2022-08-12T18:30:16.442Z,20.59
2022-08-12T18:33:03.461Z,20.59
2022-08-12T18:35:46.947Z,20.53
2022-08-12T18:38:21.900Z,20.56
2022-08-12T18:41:25.720Z,20.55
2022-08-12T18:44:09.700Z,20.54
2022-08-12T18:46:54.328Z,20.46
2022-08-12T18:49:37.956Z,20.39
2022-08-12T18:52:07.948Z,20.31
2022-08-12T18:54:41.262Z,20.28
2022-08-12T18:57:20.009Z,20.23
2022-08-12T19:00:06.515Z,20.21
2022-08-12T19:02:39.950Z,20.18
2022-08-12T19:05:12.306Z,20.13
2022-08-12T19:07:49.470Z,20.12
2022-08-12T19:10:23.009Z,20.11
2022-08-12T19:13:10.596Z,20.10
2022-08-12T19:15:43.173Z,20.08
2022-08-12T19:18:13.322Z,20.04
2022-08-12T19:20:41.851Z,20.03
2022-08-12T19:23:16.801Z,19.99
2022-08-12T19:26:00.715Z,19.92
2022-08-12T19:28:35.173Z,19.89
2022-08-12T19:31:56.502Z,19.82
2022-08-12T19:37:26.863Z,19.75
2022-08-12T19:40:10.317Z,19.73
2022-08-12T19:42:57.735Z,19.77
2022-08-12T19:45:41.936Z,19.74
2022-08-12T19:48:16.583Z,19.75
2022-08-12T19:50:50.140Z,19.73
2022-08-12T19:53:22.898Z,19.72
2022-08-12T19:55:55.149Z,19.66
2022-08-12T19:58:23.428Z,19.65
2022-08-12T20:00:54.381Z,19.59
2022-08-12T20:03:39.281Z,19.58
2022-08-12T20:06:21.539Z,19.53
2022-08-12T20:08:55.886Z,19.53
2022-08-12T20:12:11.677Z,19.54
2022-08-12T20:14:19.507Z,19.58
2022-08-12T20:16:54.403Z,19.57
2022-08-12T20:19:52.770Z,19.56
2022-08-12T20:22:33.313Z,19.56
2022-08-12T20:25:07.229Z,19.55
2022-08-12T20:28:04.853Z,19.56
2022-08-12T20:30:52.903Z,19.57
2022-08-12T20:33:17.595Z,19.57
2022-08-12T20:36:13.006Z,19.52
2022-08-12T20:38:38.192Z,19.45
2022-08-12T20:41:17.575Z,19.39
2022-08-12T20:43:51.762Z,19.23
2022-08-12T20:46:19.991Z,19.14
2022-08-12T20:48:55.235Z,19.06
2022-08-12T20:51:27.596Z,18.96
2022-08-12T20:53:58.770Z,18.87
2022-08-12T20:56:34.341Z,18.75
2022-08-12T20:59:07.227Z,18.60
2022-08-12T21:01:47.022Z,18.54
2022-08-12T21:04:35.824Z,18.49
2022-08-12T21:07:09.125Z,18.46
2022-08-12T21:09:42.504Z,18.44
2022-08-12T21:12:31.340Z,18.39
2022-08-12T21:15:17.542Z,18.33
2022-08-12T21:18:11.280Z,18.33
2022-08-12T21:20:50.300Z,18.39
2022-08-12T21:23:21.653Z,18.44
2022-08-12T21:25:51.255Z,18.50
2022-08-12T21:28:22.433Z,18.49
2022-08-12T21:32:34.395Z,18.46
2022-08-12T21:33:58.803Z,18.47
2022-08-12T21:36:34.869Z,18.53
2022-08-12T21:39:18.357Z,18.54
2022-08-12T21:41:50.886Z,18.55
2022-08-12T21:44:24.288Z,18.58
2022-08-12T21:47:21.652Z,18.55
2022-08-12T21:50:02.373Z,18.58
2022-08-12T21:52:35.689Z,18.49
2022-08-12T21:55:08.385Z,18.38
2022-08-12T21:57:50.868Z,18.28
2022-08-12T22:00:31.956Z,18.19
2022-08-12T22:04:02.161Z,18.07
2022-08-12T22:06:31.553Z,17.99
2022-08-12T22:09:16.437Z,17.85
2022-08-12T22:11:56.662Z,17.70
2022-08-12T22:14:30.198Z,17.61
2022-08-12T22:16:58.692Z,17.54
2022-08-12T22:19:27.857Z,17.50
2022-08-12T22:21:58.784Z,17.49
2022-08-12T22:24:30.544Z,17.50
2022-08-12T22:27:18.083Z,17.50
2022-08-12T22:30:08.453Z,17.48
2022-08-12T22:32:44.824Z,17.45
2022-08-12T22:35:47.282Z,17.41
2022-08-12T22:38:20.038Z,17.40
2022-08-12T22:40:52.404Z,17.37
2022-08-12T22:44:00.551Z,17.36
2022-08-12T22:46:52.097Z,17.35
2022-08-12T22:49:49.067Z,17.29
2022-08-12T22:52:14.247Z,17.23
2022-08-12T22:55:00.276Z,17.20
2022-08-12T22:57:53.317Z,17.21
2022-08-12T23:00:23.980Z,17.20
2022-08-12T23:02:52.077Z,17.16
2022-08-12T23:05:36.693Z,17.12
2022-08-12T23:08:13.892Z,17.03
2022-08-12T23:10:46.420Z,17.02
2022-08-12T23:13:42.267Z,16.99
2022-08-12T23:16:10.007Z,16.98
2022-08-12T23:18:48.113Z,16.97
2022-08-12T23:21:18.639Z,16.96
2022-08-12T23:24:09.375Z,16.93
2022-08-12T23:26:56.319Z,16.93
2022-08-12T23:29:29.803Z,16.89
2022-08-12T23:32:10.961Z,16.85
2022-08-12T23:34:37.913Z,16.81
2022-08-12T23:37:06.480Z,16.80
2022-08-12T23:40:13.500Z,16.79
2022-08-12T23:42:22.045Z,16.80
2022-08-12T23:45:03.469Z,16.79
2022-08-12T23:47:38.178Z,16.77
2022-08-12T23:50:16.149Z,16.75
2022-08-12T23:52:46.549Z,16.70
2022-08-12T23:55:25.098Z,16.65
2022-08-12T23:58:20.692Z,16.66
